createdAt,value
2023-05-12T00:00:25.644Z,17.9316
2023-05-12T00:01:26.699Z,17.9637
2023-05-12T00:02:28.432Z,17.8573
2023-05-12T00:03:30.589Z,17.7706
2023-05-12T00:04:31.727Z,17.8702
2023-05-12T00:05:33.269Z,17.9540
2023-05-12T00:06:34.935Z,17.9649
2023-05-12T00:07:36.614Z,17.9489
2023-05-12T00:08:38.237Z,17.9203
2023-05-12T00:09:39.888Z,17.9360
2023-05-12T00:10:41.494Z,17.8033
2023-05-12T00:11:43.163Z,17.7092
2023-05-12T00:12:44.790Z,17.7614
2023-05-12T00:13:46.684Z,17.8409
2023-05-12T00:14:48.238Z,17.8016
2023-05-12T00:15:49.873Z,17.8096
2023-05-12T00:16:51.734Z,17.8830
2023-05-12T00:17:53.274Z,17.9142
2023-05-12T00:18:54.855Z,17.9253
2023-05-12T00:19:56.915Z,17.8324
2023-05-12T00:20:58.983Z,17.8610
2023-05-12T00:21:59.748Z,17.6995
2023-05-12T00:23:01.343Z,17.7688
2023-05-12T00:24:03.094Z,17.8807
2023-05-12T00:25:04.702Z,17.8984
2023-05-12T00:26:06.311Z,17.9255
2023-05-12T00:27:07.905Z,17.8762
2023-05-12T00:28:09.698Z,17.8098
2023-05-12T00:29:11.318Z,17.7716
2023-05-12T00:30:12.939Z,17.7766
2023-05-12T00:31:14.551Z,17.8111
2023-05-12T00:32:16.199Z,17.7445
2023-05-12T00:33:17.835Z,17.8351
2023-05-12T00:34:19.593Z,17.7985
2023-05-12T00:35:21.086Z,17.7796
2023-05-12T00:36:22.806Z,17.7844
2023-05-12T00:37:24.406Z,17.8760
2023-05-12T00:38:26.057Z,17.7948
2023-05-12T00:39:27.796Z,17.8189
2023-05-12T00:40:29.398Z,17.6521
2023-05-12T00:41:30.999Z,17.5923
2023-05-12T00:42:32.725Z,17.6997
2023-05-12T00:43:34.329Z,17.7281
2023-05-12T00:44:36.000Z,17.7624
2023-05-12T00:45:37.718Z,17.8478
2023-05-12T00:46:39.240Z,17.6999
2023-05-12T00:47:40.917Z,17.8084
2023-05-12T00:48:42.570Z,17.9103
2023-05-12T00:49:44.284Z,17.9544
2023-05-12T00:50:45.901Z,17.9446
2023-05-12T00:51:47.513Z,17.9569
2023-05-12T00:52:49.189Z,17.9460
2023-05-12T00:53:50.933Z,17.8873
2023-05-12T00:54:52.606Z,17.8468
2023-05-12T00:55:54.161Z,17.8649
2023-05-12T00:56:55.930Z,17.6652
2023-05-12T00:57:57.482Z,17.5837
2023-05-12T00:58:59.133Z,17.5389
2023-05-12T01:00:00.862Z,17.6044
2023-05-12T01:01:02.468Z,17.6847
2023-05-12T01:02:04.061Z,17.7505
2023-05-12T01:03:05.923Z,17.7542
2023-05-12T01:04:07.372Z,17.7833
2023-05-12T01:05:09.088Z,17.8150
2023-05-12T01:06:10.641Z,17.7854
2023-05-12T01:07:12.336Z,17.7807
2023-05-12T01:08:13.925Z,17.7952
2023-05-12T01:09:15.622Z,17.7743
2023-05-12T01:10:17.373Z,17.8129
2023-05-12T01:11:18.897Z,17.8938
2023-05-12T01:12:20.505Z,17.8963
2023-05-12T01:13:22.218Z,17.9049
2023-05-12T01:14:23.938Z,17.8842
2023-05-12T01:15:25.645Z,17.8277
2023-05-12T01:16:27.123Z,17.8602
2023-05-12T01:17:28.897Z,17.7823
2023-05-12T01:18:30.566Z,17.7096
2023-05-12T01:19:32.172Z,17.8061
2023-05-12T01:20:33.730Z,17.8053
2023-05-12T01:21:35.482Z,17.7733
2023-05-12T01:22:37.909Z,17.7390
2023-05-12T01:23:38.712Z,17.8014
2023-05-12T01:24:40.399Z,17.9212
2023-05-12T01:25:42.049Z,17.9364
2023-05-12T01:26:43.675Z,17.9062
2023-05-12T01:27:45.396Z,17.9431
2023-05-12T01:28:46.960Z,17.8774
2023-05-12T01:29:48.665Z,17.7817
2023-05-12T01:30:50.366Z,17.7798
2023-05-12T01:31:51.902Z,17.8314
2023-05-12T01:32:53.571Z,17.9064
2023-05-12T01:33:55.189Z,17.8916
2023-05-12T01:34:56.854Z,17.9468
2023-05-12T01:35:58.562Z,17.8663
2023-05-12T01:37:00.164Z,17.7911
2023-05-12T01:38:02.138Z,17.8119
2023-05-12T01:39:03.455Z,17.7542
2023-05-12T01:40:05.071Z,17.7809
2023-05-12T01:41:06.788Z,17.7817
2023-05-12T01:42:08.444Z,17.7344
2023-05-12T01:43:10.070Z,17.8205
2023-05-12T01:44:11.699Z,17.8423
2023-05-12T01:45:13.358Z,17.8534
2023-05-12T01:46:15.503Z,17.9298
2023-05-12T01:47:16.713Z,17.8996
2023-05-12T01:48:18.272Z,17.7536
2023-05-12T01:49:19.950Z,17.7948
2023-05-12T01:50:21.800Z,17.8521
2023-05-12T01:51:23.346Z,17.7605
2023-05-12T01:52:24.907Z,17.8550
2023-05-12T01:53:26.615Z,17.8926
2023-05-12T01:54:28.184Z,17.7965
2023-05-12T01:55:29.846Z,17.7277
2023-05-12T01:56:32.480Z,17.6804
2023-05-12T01:57:33.130Z,17.7488
2023-05-12T01:58:34.804Z,17.8411
2023-05-12T01:59:36.398Z,17.8593
2023-05-12T02:00:38.172Z,17.8304
2023-05-12T02:01:39.750Z,17.7523
2023-05-12T02:02:43.071Z,17.7916
2023-05-12T02:03:43.166Z,17.6849
2023-05-12T02:04:44.750Z,17.6925
2023-05-12T02:05:46.275Z,17.7531
2023-05-12T02:06:47.996Z,17.7324
2023-05-12T02:07:49.627Z,17.6691
2023-05-12T02:08:51.967Z,17.7739
2023-05-12T02:09:52.859Z,17.7488
2023-05-12T02:10:54.553Z,17.6987
2023-05-12T02:11:56.282Z,17.7038
2023-05-12T02:12:57.912Z,17.7234
2023-05-12T02:13:59.462Z,17.7252
2023-05-12T02:15:01.231Z,17.7006
2023-05-12T02:16:02.898Z,17.7630
2023-05-12T02:17:04.548Z,17.8489
2023-05-12T02:18:06.175Z,17.6925
2023-05-12T02:19:07.805Z,17.7322
2023-05-12T02:20:09.397Z,17.7700
2023-05-12T02:21:11.037Z,17.7373
2023-05-12T02:22:12.689Z,17.7307
2023-05-12T02:23:14.347Z,17.6720
2023-05-12T02:24:15.918Z,17.5467
2023-05-12T02:25:17.606Z,17.6227
2023-05-12T02:26:19.194Z,17.6632
2023-05-12T02:27:20.938Z,17.7363
2023-05-12T02:28:22.567Z,17.7821
2023-05-12T02:29:24.239Z,17.7874
2023-05-12T02:30:25.823Z,17.6278
2023-05-12T02:31:27.605Z,17.5422
2023-05-12T02:32:29.505Z,17.5849
2023-05-12T02:33:30.819Z,17.4534
2023-05-12T02:34:32.475Z,17.4797
2023-05-12T02:35:34.096Z,17.6619
2023-05-12T02:36:35.727Z,17.7704
2023-05-12T02:37:37.505Z,17.7396
2023-05-12T02:38:39.001Z,17.7112
2023-05-12T02:39:40.680Z,17.7437
2023-05-12T02:40:42.324Z,17.7659
2023-05-12T02:41:44.955Z,17.8053
2023-05-12T02:42:45.588Z,17.7688
2023-05-12T02:43:47.206Z,17.8246
2023-05-12T02:44:48.855Z,17.8487
2023-05-12T02:45:50.642Z,17.8784
2023-05-12T02:46:52.120Z,17.8215
2023-05-12T02:47:53.926Z,17.7084
2023-05-12T02:48:55.479Z,17.6013
2023-05-12T02:49:57.104Z,17.6297
2023-05-12T02:50:58.720Z,17.5506
2023-05-12T02:52:00.418Z,17.4795
2023-05-12T02:53:02.085Z,17.1184
2023-05-12T02:54:03.674Z,17.2447
2023-05-12T02:55:05.359Z,17.6445
2023-05-12T02:56:06.992Z,18.0060
2023-05-12T02:57:08.639Z,18.4269
2023-05-12T02:58:10.307Z,18.6029
2023-05-12T02:59:11.945Z,18.6124
2023-05-12T03:00:13.580Z,18.7777
2023-05-12T03:01:15.212Z,18.8630
2023-05-12T03:02:16.892Z,18.7689
2023-05-12T03:03:18.553Z,18.9219
2023-05-12T03:04:20.142Z,19.1405
2023-05-12T03:05:21.803Z,19.1682
2023-05-12T03:06:23.460Z,19.0727
2023-05-12T03:07:25.146Z,19.2356
2023-05-12T03:08:26.818Z,19.2163
2023-05-12T03:09:28.370Z,19.1257
2023-05-12T03:10:30.051Z,19.1986
2023-05-12T03:11:31.652Z,19.3315
2023-05-12T03:12:33.288Z,19.4603
2023-05-12T03:13:35.440Z,19.4416
2023-05-12T03:14:36.657Z,19.4689
2023-05-12T03:15:38.237Z,19.5022
2023-05-12T03:16:40.553Z,19.4704
2023-05-12T03:17:41.581Z,19.2685
2023-05-12T03:18:43.229Z,19.3523
2023-05-12T03:19:44.802Z,19.4548
2023-05-12T03:20:46.518Z,19.5158
2023-05-12T03:21:48.084Z,19.5117
2023-05-12T03:22:49.770Z,19.6072
2023-05-12T03:23:51.452Z,19.5852
2023-05-12T03:24:53.072Z,19.5437
2023-05-12T03:25:54.668Z,19.3239
2023-05-12T03:26:56.320Z,19.3718
2023-05-12T03:27:57.972Z,19.5242
2023-05-12T03:28:59.674Z,19.6439
2023-05-12T03:30:01.252Z,19.7146
2023-05-12T03:31:03.117Z,19.7093
2023-05-12T03:32:04.585Z,19.7045
2023-05-12T03:33:06.253Z,19.6756
2023-05-12T03:34:07.915Z,19.5860
2023-05-12T03:35:09.633Z,19.6207
2023-05-12T03:36:11.139Z,19.6665
2023-05-12T03:37:12.859Z,19.7555
2023-05-12T03:38:14.440Z,19.7164
2023-05-12T03:39:16.191Z,19.7471
2023-05-12T03:40:18.975Z,19.7351
2023-05-12T03:41:19.407Z,19.7368
2023-05-12T03:42:21.048Z,19.6832
2023-05-12T03:43:22.761Z,19.7072
2023-05-12T03:44:24.363Z,19.6721
2023-05-12T03:45:26.062Z,19.6916
2023-05-12T03:46:27.661Z,19.6805
2023-05-12T03:47:29.463Z,19.6257
2023-05-12T03:48:30.971Z,19.4396
2023-05-12T03:49:32.567Z,19.1160
2023-05-12T03:50:34.258Z,18.9090
2023-05-12T03:51:35.978Z,18.7237
2023-05-12T03:52:37.513Z,18.8192
2023-05-12T03:53:39.188Z,19.1742
2023-05-12T03:54:40.809Z,19.3705
2023-05-12T03:55:42.965Z,19.3681
2023-05-12T03:56:44.133Z,19.1723
2023-05-12T03:57:45.744Z,18.9172
2023-05-12T03:58:47.436Z,18.6664
2023-05-12T03:59:49.102Z,18.9299
2023-05-12T04:00:50.732Z,19.1017
2023-05-12T04:01:52.392Z,18.9807
2023-05-12T04:02:54.038Z,18.8753
2023-05-12T04:03:55.729Z,18.7483
2023-05-12T04:04:57.281Z,19.0252
2023-05-12T04:05:58.967Z,19.2882
2023-05-12T04:07:00.650Z,19.2582
2023-05-12T04:08:02.228Z,19.0039
2023-05-12T04:09:03.896Z,19.0618
2023-05-12T04:10:05.540Z,19.3332
2023-05-12T04:11:07.481Z,19.4151
2023-05-12T04:12:08.793Z,19.4387
2023-05-12T04:13:10.460Z,19.5369
2023-05-12T04:14:12.083Z,19.4737
2023-05-12T04:15:13.799Z,19.5014
2023-05-12T04:16:15.524Z,19.6497
2023-05-12T04:17:17.041Z,19.6924
2023-05-12T04:18:18.697Z,19.5918
2023-05-12T04:19:20.329Z,19.4915
2023-05-12T04:20:22.121Z,19.1733
2023-05-12T04:21:24.494Z,19.1703
2023-05-12T04:22:25.817Z,19.2537
2023-05-12T04:23:26.945Z,19.4823
2023-05-12T04:24:28.648Z,19.5944
2023-05-12T04:25:30.234Z,19.7072
2023-05-12T04:26:31.872Z,19.5026
2023-05-12T04:27:33.526Z,19.3079
2023-05-12T04:28:35.176Z,19.3445
2023-05-12T04:29:36.825Z,19.4320
2023-05-12T04:30:38.470Z,19.5840
2023-05-12T04:31:40.177Z,19.6844
2023-05-12T04:32:41.789Z,19.7029
2023-05-12T04:33:43.464Z,19.6889
2023-05-12T04:34:45.951Z,19.8007
2023-05-12T04:35:47.453Z,19.9196
2023-05-12T04:36:48.389Z,19.9531
2023-05-12T04:37:50.973Z,19.9262
2023-05-12T04:38:51.699Z,19.4634
2023-05-12T04:39:53.280Z,19.2880
2023-05-12T04:40:54.914Z,19.5679
2023-05-12T04:41:56.666Z,19.7641
2023-05-12T04:42:58.232Z,19.5464
2023-05-12T04:44:00.380Z,19.4330
2023-05-12T04:45:01.505Z,19.2949
2023-05-12T04:46:03.222Z,19.3925
2023-05-12T04:47:04.875Z,19.5112
2023-05-12T04:48:07.501Z,19.7288
2023-05-12T04:49:09.095Z,19.7035
2023-05-12T04:50:09.950Z,19.2756
2023-05-12T04:51:11.604Z,19.2346
2023-05-12T04:52:13.228Z,19.4734
2023-05-12T04:53:14.828Z,20.0465
2023-05-12T04:54:16.495Z,20.6244
2023-05-12T04:55:18.429Z,20.8345
2023-05-12T04:56:19.883Z,20.7049
2023-05-12T04:57:21.653Z,20.6866
2023-05-12T04:58:23.141Z,21.0789
2023-05-12T04:59:24.731Z,21.6752
2023-05-12T05:00:26.516Z,22.1842
2023-05-12T05:01:28.106Z,22.7514
2023-05-12T05:02:30.270Z,22.9666
2023-05-12T05:03:31.492Z,23.0057
2023-05-12T05:04:33.047Z,22.9894
2023-05-12T05:05:34.658Z,23.3604
2023-05-12T05:06:36.306Z,23.6342
2023-05-12T05:07:38.947Z,23.7234
2023-05-12T05:08:40.443Z,23.7885
2023-05-12T05:09:41.291Z,23.6350
2023-05-12T05:10:42.868Z,23.9873
2023-05-12T05:11:44.586Z,24.1572
2023-05-12T05:12:46.171Z,24.2077
2023-05-12T05:13:47.841Z,24.3289
2023-05-12T05:14:50.425Z,24.2194
2023-05-12T05:15:51.295Z,24.4195
2023-05-12T05:16:52.750Z,24.6787
2023-05-12T05:17:54.647Z,24.5871
2023-05-12T05:18:57.614Z,24.3277
2023-05-12T05:19:59.226Z,24.4719
2023-05-12T05:20:59.522Z,24.5033
2023-05-12T05:22:01.021Z,24.6738
2023-05-12T05:23:02.724Z,24.9425
2023-05-12T05:24:04.346Z,24.7599
2023-05-12T05:25:05.930Z,24.7091
2023-05-12T05:26:07.667Z,24.7625
2023-05-12T05:27:09.230Z,24.7753
2023-05-12T05:28:10.966Z,25.0140
2023-05-12T05:29:12.548Z,25.2711
2023-05-12T05:30:14.256Z,25.0312
2023-05-12T05:31:15.866Z,25.0031
2023-05-12T05:32:17.499Z,24.9376
2023-05-12T05:33:19.250Z,25.0670
2023-05-12T05:34:20.812Z,25.4496
2023-05-12T05:35:22.635Z,25.2356
2023-05-12T05:36:24.046Z,25.0407
2023-05-12T05:37:25.717Z,25.1378
2023-05-12T05:38:28.225Z,25.1896
2023-05-12T05:39:28.958Z,25.3344
2023-05-12T05:40:38.536Z,25.4634
2023-05-12T05:41:32.471Z,25.2750
2023-05-12T05:42:34.058Z,25.4006
2023-05-12T05:43:35.623Z,25.0933
2023-05-12T05:44:37.182Z,25.2077
2023-05-12T05:45:38.888Z,25.5351
2023-05-12T05:46:40.547Z,25.5953
2023-05-12T05:47:42.220Z,25.4390
2023-05-12T05:48:43.859Z,25.4535
2023-05-12T05:49:45.468Z,25.2650
2023-05-12T05:50:47.089Z,25.5261
2023-05-12T05:51:48.751Z,25.7512
2023-05-12T05:52:50.404Z,25.7584
2023-05-12T05:53:52.107Z,25.6939
2023-05-12T05:54:53.714Z,25.5717
2023-05-12T05:55:55.694Z,25.6142
2023-05-12T05:56:57.264Z,25.8319
2023-05-12T05:57:58.710Z,26.0659
2023-05-12T05:59:00.272Z,26.0907
2023-05-12T06:00:01.999Z,26.0829
2023-05-12T06:01:04.091Z,25.7699
2023-05-12T06:02:05.294Z,25.7978
2023-05-12T06:03:06.991Z,25.9851
2023-05-12T06:04:09.544Z,25.7395
2023-05-12T06:05:10.146Z,25.7793
2023-05-12T06:06:12.957Z,25.9702
2023-05-12T06:07:13.452Z,25.9342
2023-05-12T06:08:15.035Z,25.9983
2023-05-12T06:09:16.734Z,26.0055
2023-05-12T06:10:18.622Z,25.8504
2023-05-12T06:11:19.983Z,25.9535
2023-05-12T06:12:21.570Z,25.9597
2023-05-12T06:13:23.245Z,25.9771
2023-05-12T06:14:25.100Z,26.1135
2023-05-12T06:15:26.584Z,26.1359
2023-05-12T06:16:28.240Z,25.9106
2023-05-12T06:17:32.066Z,26.1725
2023-05-12T06:18:31.490Z,26.1940
2023-05-12T06:19:33.722Z,26.0731
2023-05-12T06:20:34.769Z,26.2051
2023-05-12T06:21:36.428Z,26.2852
2023-05-12T06:22:38.056Z,26.0648
2023-05-12T06:23:39.774Z,26.2703
2023-05-12T06:24:41.401Z,26.3717
2023-05-12T06:25:43.029Z,26.3101
2023-05-12T06:26:44.675Z,26.3723
2023-05-12T06:27:46.316Z,26.4851
2023-05-12T06:28:47.984Z,26.1760
2023-05-12T06:29:49.604Z,25.9913
2023-05-12T06:30:51.220Z,25.6092
2023-05-12T06:31:52.902Z,25.2155
2023-05-12T06:32:54.519Z,25.0335
2023-05-12T06:33:56.159Z,24.7190
2023-05-12T06:34:57.846Z,24.3930
2023-05-12T06:35:59.543Z,24.4187
2023-05-12T06:37:01.074Z,24.1617
2023-05-12T06:38:02.805Z,24.1445
2023-05-12T06:39:04.418Z,24.2301
2023-05-12T06:40:06.072Z,24.0153
2023-05-12T06:41:08.669Z,23.9536
2023-05-12T06:42:09.385Z,23.7349
2023-05-12T06:43:10.978Z,23.6336
2023-05-12T06:44:12.643Z,23.6188
2023-05-12T06:45:14.287Z,23.8265
2023-05-12T06:46:16.030Z,23.5373
2023-05-12T06:47:17.544Z,23.4422
2023-05-12T06:48:19.172Z,23.3058
2023-05-12T06:49:20.796Z,23.0410
2023-05-12T06:50:22.572Z,22.8607
2023-05-12T06:51:24.135Z,23.0716
2023-05-12T06:52:26.490Z,23.1193
2023-05-12T06:53:27.371Z,23.0139
2023-05-12T06:54:29.144Z,23.0772
2023-05-12T06:55:30.717Z,22.7499
2023-05-12T06:56:32.453Z,22.6478
2023-05-12T06:57:34.047Z,22.9143
2023-05-12T06:58:35.619Z,23.0005
2023-05-12T06:59:37.304Z,22.9315
2023-05-12T07:00:39.669Z,22.9126
2023-05-12T07:01:40.691Z,22.7990
2023-05-12T07:02:42.280Z,22.6770
2023-05-12T07:03:43.855Z,22.8775
2023-05-12T07:04:45.625Z,22.8183
2023-05-12T07:05:47.189Z,22.8126
2023-05-12T07:06:48.912Z,22.5988
2023-05-12T07:07:50.576Z,22.4237
2023-05-12T07:08:52.157Z,22.4562
2023-05-12T07:09:53.738Z,22.7787
2023-05-12T07:10:55.467Z,22.6780
2023-05-12T07:11:57.126Z,22.6984
2023-05-12T07:12:58.722Z,22.4659
2023-05-12T07:14:00.377Z,22.1506
2023-05-12T07:15:02.017Z,22.0961
2023-05-12T07:16:03.626Z,22.4036
2023-05-12T07:17:05.242Z,22.4098
2023-05-12T07:18:06.991Z,22.4901
2023-05-12T07:19:08.672Z,22.5827
2023-05-12T07:20:10.172Z,22.1479
2023-05-12T07:21:11.867Z,22.0881
2023-05-12T07:22:16.179Z,22.3506
2023-05-12T07:23:15.049Z,22.3691
2023-05-12T07:24:16.708Z,22.3790
2023-05-12T07:25:19.150Z,22.2646
2023-05-12T07:26:21.648Z,21.9324
2023-05-12T07:27:21.624Z,22.0279
2023-05-12T07:28:23.276Z,22.3210
2023-05-12T07:29:24.914Z,22.3091
2023-05-12T07:30:26.660Z,22.4453
2023-05-12T07:31:29.197Z,22.4235
2023-05-12T07:32:29.920Z,22.2165
2023-05-12T07:33:32.683Z,22.3200
2023-05-12T07:34:33.208Z,22.5593
2023-05-12T07:35:34.949Z,22.6374
2023-05-12T07:36:36.574Z,22.7175
2023-05-12T07:37:38.356Z,22.4989
2023-05-12T07:38:39.905Z,22.1532
2023-05-12T07:39:41.554Z,22.3077
2023-05-12T07:40:43.140Z,22.6296
2023-05-12T07:41:44.876Z,22.7027
2023-05-12T07:42:46.429Z,22.6135
2023-05-12T07:43:48.276Z,22.2506
2023-05-12T07:44:49.706Z,22.0259
2023-05-12T07:45:51.441Z,22.0427
2023-05-12T07:46:54.100Z,22.3134
2023-05-12T07:47:55.557Z,22.3159
2023-05-12T07:48:56.266Z,22.2342
2023-05-12T07:49:58.693Z,22.2042
2023-05-12T07:50:59.543Z,21.9359
2023-05-12T07:52:01.270Z,22.0598
2023-05-12T07:53:02.856Z,22.1986
2023-05-12T07:54:04.540Z,22.1123
2023-05-12T07:55:06.158Z,22.2937
2023-05-12T07:56:07.861Z,22.1674
2023-05-12T07:57:09.478Z,21.7278
2023-05-12T07:58:11.059Z,21.9659
2023-05-12T07:59:12.754Z,22.2617
2023-05-12T08:00:14.413Z,22.2687
2023-05-12T08:01:16.109Z,22.3095
2023-05-12T08:02:18.202Z,22.0431
2023-05-12T08:03:19.403Z,21.6204
2023-05-12T08:04:21.027Z,21.8523
2023-05-12T08:05:22.701Z,22.1561
2023-05-12T08:06:25.026Z,22.1838
2023-05-12T08:07:26.195Z,22.3675
2023-05-12T08:08:27.516Z,22.2190
2023-05-12T08:09:29.221Z,21.8266
2023-05-12T08:10:30.843Z,21.9377
2023-05-12T08:11:32.475Z,22.1820
2023-05-12T08:12:34.131Z,22.1824
2023-05-12T08:13:35.733Z,22.2765
2023-05-12T08:14:37.335Z,22.1395
2023-05-12T08:15:39.045Z,21.7108
2023-05-12T08:16:40.739Z,21.8745
2023-05-12T08:17:42.359Z,22.1627
2023-05-12T08:18:43.986Z,22.0807
2023-05-12T08:19:45.571Z,22.1551
2023-05-12T08:20:47.249Z,22.0649
2023-05-12T08:21:48.878Z,21.6748
2023-05-12T08:22:52.173Z,21.6372
2023-05-12T08:23:53.209Z,22.0536
2023-05-12T08:24:54.044Z,22.1278
2023-05-12T08:25:55.600Z,22.0322
2023-05-12T08:26:57.359Z,22.0637
2023-05-12T08:27:58.976Z,21.6882
2023-05-12T08:29:00.599Z,21.6722
2023-05-12T08:30:02.223Z,22.1830
2023-05-12T08:31:05.127Z,22.2444
2023-05-12T08:32:05.421Z,22.2691
2023-05-12T08:33:07.213Z,22.3993
2023-05-12T08:34:10.906Z,22.2237
2023-05-12T08:35:10.391Z,21.9320
2023-05-12T08:36:11.987Z,21.9901
2023-05-12T08:37:13.783Z,22.2970
2023-05-12T08:38:15.662Z,22.4595
2023-05-12T08:39:16.957Z,22.6193
2023-05-12T08:40:18.571Z,22.3966
2023-05-12T08:41:20.257Z,21.9745
2023-05-12T08:42:21.960Z,21.9160
2023-05-12T08:43:23.624Z,22.2321
2023-05-12T08:44:25.172Z,22.3673
2023-05-12T08:45:26.913Z,22.4233
2023-05-12T08:46:28.509Z,22.3765
2023-05-12T08:47:30.145Z,22.1955
2023-05-12T08:48:31.788Z,21.9854
2023-05-12T08:49:33.495Z,22.4077
2023-05-12T08:50:35.128Z,22.5949
2023-05-12T08:51:36.721Z,22.5509
2023-05-12T08:52:38.363Z,22.5686
2023-05-12T08:53:40.057Z,22.4414
2023-05-12T08:54:52.414Z,22.2545
2023-05-12T08:55:48.224Z,22.5653
2023-05-12T08:57:46.627Z,22.5228
2023-05-12T08:58:48.222Z,22.6797
2023-05-12T08:59:49.969Z,22.4182
2023-05-12T09:00:51.604Z,22.1438
2023-05-12T09:01:53.363Z,22.4683
2023-05-12T09:02:55.118Z,22.6984
2023-05-12T09:03:56.598Z,22.5679
2023-05-12T09:04:58.192Z,22.6795
2023-05-12T09:05:59.836Z,22.4607
2023-05-12T09:07:01.459Z,22.1158
2023-05-12T09:08:03.112Z,22.3206
2023-05-12T09:09:04.763Z,22.5753
2023-05-12T09:10:06.419Z,22.4587
2023-05-12T09:11:08.086Z,22.4572
2023-05-12T09:12:10.556Z,22.3147
2023-05-12T09:13:11.343Z,22.0255
2023-05-12T09:14:13.049Z,22.0532
2023-05-12T09:15:14.729Z,22.4819
2023-05-12T09:16:16.334Z,22.5731
2023-05-12T09:17:17.992Z,22.5384
2023-05-12T09:18:19.623Z,22.5431
2023-05-12T09:19:21.186Z,22.2972
2023-05-12T09:20:30.818Z,22.2812
2023-05-12T09:21:24.438Z,22.8101
2023-05-12T09:22:26.084Z,22.8563
2023-05-12T09:23:27.742Z,22.8656
2023-05-12T09:24:29.387Z,22.8814
2023-05-12T09:25:31.078Z,22.5254
2023-05-12T09:26:32.704Z,22.5139
2023-05-12T09:27:34.389Z,22.9260
2023-05-12T09:28:36.020Z,22.9866
2023-05-12T09:29:45.310Z,23.0287
2023-05-12T09:30:39.317Z,23.0831
2023-05-12T09:31:40.959Z,22.8869
2023-05-12T09:32:42.548Z,22.7633
2023-05-12T09:33:44.217Z,23.1293
2023-05-12T09:34:46.595Z,23.2626
2023-05-12T09:35:47.543Z,23.3144
2023-05-12T09:36:49.156Z,23.2468
2023-05-12T09:37:51.846Z,22.8520
2023-05-12T09:38:52.595Z,22.9371
2023-05-12T09:39:54.192Z,23.2302
2023-05-12T09:40:55.873Z,23.2125
2023-05-12T09:41:57.552Z,23.3931
2023-05-12T09:42:59.144Z,23.1439
2023-05-12T09:44:00.894Z,22.8101
2023-05-12T09:45:02.478Z,22.7984
2023-05-12T09:46:04.139Z,23.1540
2023-05-12T09:47:05.800Z,23.2462
2023-05-12T09:48:07.442Z,23.4011
2023-05-12T09:49:09.111Z,23.0667
2023-05-12T09:50:10.741Z,22.7787
2023-05-12T09:51:12.376Z,22.9551
2023-05-12T09:52:14.036Z,23.1071
2023-05-12T09:53:15.709Z,22.9124
2023-05-12T09:54:18.281Z,23.1517
2023-05-12T09:55:19.068Z,23.0496
2023-05-12T09:56:20.645Z,22.8997
2023-05-12T09:57:22.248Z,23.2744
2023-05-12T09:58:23.891Z,23.3325
2023-05-12T09:59:25.576Z,23.4617
2023-05-12T10:00:41.293Z,23.4531
2023-05-12T10:01:28.873Z,23.3185
2023-05-12T10:02:30.725Z,23.0634
2023-05-12T10:03:32.099Z,23.4165
2023-05-12T10:04:33.802Z,23.4744
2023-05-12T10:05:35.400Z,23.5671
2023-05-12T10:06:37.748Z,23.4450
2023-05-12T10:07:38.802Z,23.2811
2023-05-12T10:08:40.509Z,23.1905
2023-05-12T10:09:41.999Z,23.5323
2023-05-12T10:10:43.612Z,23.6737
2023-05-12T10:11:45.348Z,23.5278
2023-05-12T10:12:46.957Z,23.3352
2023-05-12T10:13:48.597Z,22.9936
2023-05-12T10:14:50.207Z,22.9397
2023-05-12T10:15:51.954Z,23.2094
2023-05-12T10:16:54.268Z,23.3925
2023-05-12T10:17:55.264Z,23.4136
2023-05-12T10:18:56.898Z,23.5625
2023-05-12T10:19:58.449Z,23.2943
2023-05-12T10:21:00.240Z,23.5381
2023-05-12T10:22:02.346Z,23.9134
2023-05-12T10:23:03.419Z,23.9280
2023-05-12T10:24:05.053Z,23.8758
2023-05-12T10:25:06.673Z,23.6550
2023-05-12T10:26:08.337Z,23.2238
2023-05-12T10:27:10.752Z,23.3645
2023-05-12T10:28:11.784Z,23.8616
2023-05-12T10:29:13.296Z,24.1798
2023-05-12T10:30:14.944Z,24.3392
2023-05-12T10:31:16.712Z,24.3384
2023-05-12T10:32:19.292Z,23.9869
2023-05-12T10:33:20.358Z,24.2203
2023-05-12T10:34:21.662Z,24.4062
2023-05-12T10:35:23.171Z,24.6658
2023-05-12T10:36:24.844Z,24.4731
2023-05-12T10:37:27.216Z,24.2008
2023-05-12T10:38:28.158Z,23.7180
2023-05-12T10:39:29.718Z,23.9278
2023-05-12T10:40:32.381Z,24.1114
2023-05-12T10:41:33.049Z,24.0249
2023-05-12T10:42:35.275Z,23.9594
2023-05-12T10:43:36.372Z,23.6856
2023-05-12T10:44:38.022Z,23.5936
2023-05-12T10:45:39.663Z,23.7679
2023-05-12T10:46:41.317Z,23.7530
2023-05-12T10:47:43.059Z,23.8047
2023-05-12T10:48:44.597Z,23.7279
2023-05-12T10:49:46.264Z,23.3898
2023-05-12T10:50:47.858Z,23.3838
2023-05-12T10:51:49.524Z,23.4007
2023-05-12T10:52:51.172Z,23.4259
2023-05-12T10:53:54.860Z,23.3372
2023-05-12T10:54:54.509Z,23.2838
2023-05-12T10:55:56.288Z,22.9291
2023-05-12T10:56:57.964Z,23.0839
2023-05-12T10:58:00.154Z,23.3341
2023-05-12T10:59:01.468Z,23.4005
2023-05-12T11:00:03.835Z,23.4144
2023-05-12T11:01:05.055Z,23.4296
2023-05-12T11:02:06.975Z,23.1908
2023-05-12T11:03:10.441Z,23.4155
2023-05-12T11:04:09.410Z,23.5816
2023-05-12T11:05:11.223Z,23.6104
2023-05-12T11:06:12.806Z,23.4896
2023-05-12T11:07:14.707Z,23.6075
2023-05-12T11:08:16.061Z,23.4941
2023-05-12T11:09:18.002Z,23.7156
2023-05-12T11:10:19.706Z,23.8873
2023-05-12T11:11:20.870Z,23.9382
2023-05-12T11:12:22.583Z,23.8285
2023-05-12T11:13:24.192Z,23.6804
2023-05-12T11:14:25.819Z,23.6404
2023-05-12T11:15:27.491Z,24.0689
2023-05-12T11:16:29.155Z,24.1095
2023-05-12T11:17:30.784Z,24.2135
2023-05-12T11:18:32.442Z,24.0861
2023-05-12T11:19:34.074Z,23.9171
2023-05-12T11:20:35.628Z,23.8893
2023-05-12T11:21:37.371Z,24.2363
2023-05-12T11:22:38.979Z,24.3784
2023-05-12T11:23:40.704Z,24.4433
2023-05-12T11:24:42.298Z,24.4571
2023-05-12T11:25:44.451Z,24.2648
2023-05-12T11:26:45.620Z,24.1823
2023-05-12T11:27:47.598Z,24.1985
2023-05-12T11:28:48.913Z,24.0533
2023-05-12T11:29:52.368Z,24.0110
2023-05-12T11:30:54.699Z,23.9966
2023-05-12T11:31:53.876Z,23.9530
2023-05-12T11:32:55.429Z,24.0728
2023-05-12T11:34:10.846Z,24.2355
2023-05-12T11:34:58.801Z,24.3240
2023-05-12T11:36:00.464Z,24.3963
2023-05-12T11:37:02.067Z,24.0983
2023-05-12T11:38:03.742Z,24.1321
2023-05-12T11:39:05.387Z,24.3575
2023-05-12T11:40:07.090Z,24.0822
2023-05-12T11:41:08.620Z,24.0124
2023-05-12T11:42:13.433Z,23.9986
2023-05-12T11:43:12.047Z,23.9491
2023-05-12T11:44:13.663Z,23.8487
2023-05-12T11:45:15.254Z,24.0364
2023-05-12T11:46:17.011Z,23.5816
2023-05-12T11:47:18.588Z,23.4588
2023-05-12T11:48:20.339Z,23.4405
2023-05-12T11:49:22.293Z,23.7076
2023-05-12T11:50:23.568Z,23.7704
2023-05-12T11:51:25.120Z,23.7622
2023-05-12T11:52:26.806Z,23.5798
2023-05-12T11:53:28.499Z,23.8119
2023-05-12T11:54:30.148Z,23.9161
2023-05-12T11:55:31.720Z,23.9329
2023-05-12T11:56:33.429Z,23.9313
2023-05-12T11:57:35.756Z,23.8670
2023-05-12T11:58:36.683Z,23.8259
2023-05-12T11:59:38.797Z,23.9561
2023-05-12T12:00:40.052Z,23.9625
2023-05-12T12:01:41.609Z,23.8953
2023-05-12T12:02:43.471Z,24.0446
2023-05-12T12:03:45.037Z,23.8717
2023-05-12T12:04:46.641Z,23.9043
2023-05-12T12:05:48.194Z,23.9888
2023-05-12T12:06:49.893Z,24.0159
2023-05-12T12:07:51.491Z,24.0066
2023-05-12T12:08:53.130Z,24.2747
2023-05-12T12:09:54.821Z,23.8914
2023-05-12T12:10:57.273Z,23.9386
2023-05-12T12:11:58.104Z,23.9514
2023-05-12T12:13:00.289Z,24.0064
2023-05-12T12:14:01.416Z,23.9892
2023-05-12T12:15:04.018Z,24.1303
2023-05-12T12:16:05.635Z,23.8411
2023-05-12T12:17:06.338Z,23.9452
2023-05-12T12:18:08.099Z,23.9126
2023-05-12T12:19:09.813Z,24.0561
2023-05-12T12:20:11.384Z,24.2264
2023-05-12T12:21:12.953Z,24.1574
2023-05-12T12:22:14.581Z,24.0504
2023-05-12T12:23:16.169Z,24.2895
2023-05-12T12:24:18.772Z,24.4970
2023-05-12T12:25:19.822Z,24.3823
2023-05-12T12:26:21.176Z,24.6136